Time;durP1;ratioP1;P1;durP2;ratioP2;P2;SDS_P1;SDS_P2;PMS_P1;PMS_P2;Temp;Humidity;BMP_temperature;BMP_pressure;BME280_temperature;BME280_humidity;BME280_pressure;Samples;Min_cycle;Max_cycle;Signal;HPM_P1;HPM_P2
2023/08/27 00:01:49;;;;;;;8.20;4.25;;;18.50;99.90;;;;;;4942786;28;20042;-83
2023/08/27 00:04:15;;;;;;;8.13;4.00;;;18.60;99.90;;;;;;4945639;28;20039;-85
2023/08/27 00:06:40;;;;;;;8.13;3.77;;;18.60;99.90;;;;;;4976695;28;20564;-83
2023/08/27 00:09:06;;;;;;;5.40;3.50;;;18.50;99.90;;;;;;4941204;28;20068;-80
2023/08/27 00:11:32;;;;;;;8.50;3.70;;;18.50;99.90;;;;;;4942734;28;20126;-85
2023/08/27 00:13:58;;;;;;;7.90;3.88;;;18.40;99.90;;;;;;4945486;28;20581;-84
2023/08/27 00:16:24;;;;;;;5.55;4.10;;;18.40;99.90;;;;;;4948126;28;20085;-86
2023/08/27 00:18:49;;;;;;;5.27;4.50;;;18.40;99.90;;;;;;4937237;28;20071;-88
2023/08/27 00:21:15;;;;;;;7.03;4.77;;;18.40;99.90;;;;;;4945558;28;20567;-87
2023/08/27 00:23:41;;;;;;;6.30;4.40;;;18.40;99.90;;;;;;4940451;28;20035;-89
2023/08/27 00:26:07;;;;;;;8.37;4.40;;;18.40;99.90;;;;;;4941225;28;20042;-87
2023/08/27 00:28:32;;;;;;;9.55;5.60;;;18.20;99.90;;;;;;4944194;28;20041;-87
2023/08/27 00:31:03;;;;;;;8.00;4.90;;;18.10;99.90;;;;;;4942448;28;20043;-89
2023/08/27 00:33:29;;;;;;;5.80;3.50;;;18.00;99.90;;;;;;4949527;28;20046;-89
2023/08/27 00:35:54;;;;;;;3.22;2.40;;;18.00;99.90;;;;;;4939189;28;20520;-88
2023/08/27 00:38:20;;;;;;;5.70;2.73;;;18.10;99.90;;;;;;4942321;28;20119;-87
2023/08/27 00:40:46;;;;;;;4.30;2.63;;;18.00;99.90;;;;;;4941657;28;20030;-87
2023/08/27 00:43:11;;;;;;;4.73;2.77;;;18.30;99.90;;;;;;4942846;28;20705;-88
2023/08/27 00:45:37;;;;;;;5.83;2.80;;;18.60;99.90;;;;;;4944957;28;20043;-89
2023/08/27 00:48:03;;;;;;;5.15;3.88;;;18.60;99.90;;;;;;4946521;28;20035;-88
2023/08/27 00:50:30;;;;;;;7.00;4.32;;;18.50;99.90;;;;;;4947508;28;20053;-85
2023/08/27 00:52:56;;;;;;;9.60;3.58;;;18.50;99.90;;;;;;4941648;28;20434;-87
2023/08/27 00:55:22;;;;;;;7.35;4.03;;;18.30;99.90;;;;;;4943272;28;20039;-88
2023/08/27 00:57:49;;;;;;;5.20;3.83;;;18.20;99.90;;;;;;4949149;28;20042;-87
2023/08/27 01:00:16;;;;;;;6.57;3.38;;;18.30;99.90;;;;;;4947256;28;20074;-86
2023/08/27 01:02:43;;;;;;;3.75;2.83;;;18.30;99.90;;;;;;4944240;28;20028;-87
2023/08/27 01:05:11;;;;;;;5.05;3.17;;;18.30;99.90;;;;;;4950995;28;20083;-86
2023/08/27 01:07:43;;;;;;;2.80;1.90;;;18.30;99.90;;;;;;4945253;28;20799;-86
2023/08/27 01:10:09;;;;;;;3.85;2.55;;;18.40;99.90;;;;;;4946848;28;20027;-88
2023/08/27 01:13:00;;;;;;;5.43;2.38;;;18.30;99.90;;;;;;4950797;28;20034;-87
2023/08/27 01:15:27;;;;;;;3.72;1.92;;;18.10;99.90;;;;;;4950370;28;20031;-87
2023/08/27 01:17:55;;;;;;;6.45;2.67;;;18.10;99.90;;;;;;4947019;28;20043;-85
2023/08/27 01:20:22;;;;;;;4.75;3.20;;;18.10;99.90;;;;;;4978582;28;20736;-86
2023/08/27 01:22:47;;;;;;;6.50;3.10;;;18.10;99.90;;;;;;4938961;28;20035;-86
2023/08/27 01:25:18;;;;;;;7.53;2.77;;;18.10;99.90;;;;;;4949080;28;20036;-86
2023/08/27 01:28:30;;;;;;;5.60;2.55;;;18.10;99.90;;;;;;4947235;28;20035;-86
2023/08/27 01:31:06;;;;;;;4.65;2.72;;;18.20;99.90;;;;;;4958089;28;20035;-86
2023/08/27 01:33:33;;;;;;;4.83;2.60;;;18.30;99.90;;;;;;4939923;28;20609;-87
2023/08/27 01:35:59;;;;;;;5.97;2.75;;;18.30;99.90;;;;;;4947366;28;20489;-87
2023/08/27 01:38:25;;;;;;;4.03;2.38;;;18.20;99.90;;;;;;4946829;28;20035;-87
2023/08/27 01:40:51;;;;;;;4.53;2.23;;;18.20;99.90;;;;;;4942512;28;20043;-87
2023/08/27 01:43:17;;;;;;;6.77;2.20;;;18.20;99.90;;;;;;4948440;28;20477;-85
2023/08/27 01:45:42;;;;;;;5.22;2.53;;;18.10;99.90;;;;;;4944360;28;20082;-85
2023/08/27 01:48:08;;;;;;;5.53;2.40;;;18.00;99.90;;;;;;4948296;28;20071;-87
2023/08/27 01:50:33;;;;;;;4.57;2.27;;;18.00;99.90;;;;;;4946532;28;20039;-87
2023/08/27 01:52:59;;;;;;;2.70;1.87;;;18.10;99.90;;;;;;4942296;28;20090;-86
2023/08/27 01:55:25;;;;;;;5.67;2.90;;;18.20;99.90;;;;;;4949310;28;20039;-85
2023/08/27 01:57:50;;;;;;;3.47;2.47;;;18.20;99.90;;;;;;4943773;28;20035;-84
2023/08/27 02:00:18;;;;;;;10.63;2.87;;;18.10;99.90;;;;;;4943204;28;20035;-85
2023/08/27 02:02:44;;;;;;;3.55;2.60;;;17.90;99.90;;;;;;4939084;28;20560;-86
2023/08/27 02:05:09;;;;;;;8.20;3.05;;;17.40;99.90;;;;;;4943834;28;20034;-85
2023/08/27 02:07:37;;;;;;;8.80;3.13;;;17.30;99.90;;;;;;4948703;28;20047;-87
2023/08/27 02:10:06;;;;;;;7.63;2.83;;;17.80;99.90;;;;;;4942547;28;20861;-84
2023/08/27 02:12:32;;;;;;;5.65;2.47;;;17.80;99.90;;;;;;4944255;28;20676;-87
2023/08/27 02:14:59;;;;;;;4.17;2.60;;;18.00;99.90;;;;;;4944542;28;20118;-88
2023/08/27 02:17:24;;;;;;;4.78;2.40;;;18.00;99.90;;;;;;4942408;28;20302;-85
2023/08/27 02:19:50;;;;;;;7.63;2.47;;;18.00;99.90;;;;;;4940731;28;20061;-88
2023/08/27 02:22:15;;;;;;;4.40;2.57;;;18.00;99.90;;;;;;4947618;28;20074;-88
2023/08/27 02:24:42;;;;;;;6.63;2.80;;;18.10;99.90;;;;;;4940854;28;20035;-86
2023/08/27 02:27:08;;;;;;;3.55;2.38;;;18.10;99.90;;;;;;4943645;28;20063;-85
2023/08/27 02:29:35;;;;;;;4.53;3.00;;;18.00;99.90;;;;;;4947872;28;20026;-88
2023/08/27 02:32:01;;;;;;;8.82;3.33;;;18.00;99.90;;;;;;4947433;28;20029;-88
2023/08/27 02:34:27;;;;;;;3.90;3.10;;;18.10;99.90;;;;;;4941422;28;20695;-87
2023/08/27 02:36:52;;;;;;;11.50;2.70;;;18.10;99.90;;;;;;4947982;28;20065;-87
2023/08/27 02:39:18;;;;;;;7.17;3.43;;;18.00;99.90;;;;;;4977769;28;20067;-88
2023/08/27 02:41:43;;;;;;;9.17;3.07;;;17.90;99.90;;;;;;4938385;28;20087;-86
2023/08/27 02:44:09;;;;;;;3.87;2.53;;;17.90;99.90;;;;;;4942478;28;20043;-87
2023/08/27 02:46:35;;;;;;;6.90;3.33;;;18.00;99.90;;;;;;4938631;28;20042;-88
2023/08/27 02:49:00;;;;;;;6.60;2.70;;;18.00;99.90;;;;;;4935388;28;20032;-88
2023/08/27 02:51:26;;;;;;;8.67;3.23;;;17.90;99.90;;;;;;4941473;28;20023;-89
2023/08/27 02:53:51;;;;;;;5.27;2.50;;;17.90;99.90;;;;;;4945284;28;20067;-89
2023/08/27 02:56:18;;;;;;;4.77;2.63;;;17.80;99.90;;;;;;4940203;28;20040;-88
2023/08/27 02:58:43;;;;;;;6.07;2.95;;;17.90;99.90;;;;;;4936315;28;20078;-90
2023/08/27 03:01:09;;;;;;;5.43;2.90;;;17.90;99.90;;;;;;4946129;28;20069;-86
2023/08/27 03:03:35;;;;;;;6.32;2.42;;;17.90;99.90;;;;;;4945676;28;20035;-86
2023/08/27 03:06:01;;;;;;;7.33;2.70;;;17.90;99.90;;;;;;4941485;28;20095;-87
2023/08/27 03:08:26;;;;;;;6.57;3.20;;;17.80;99.90;;;;;;4940487;28;20295;-89
2023/08/27 03:10:52;;;;;;;4.60;2.93;;;17.80;99.90;;;;;;4945501;28;20038;-87
2023/08/27 03:13:18;;;;;;;5.03;2.90;;;17.90;99.90;;;;;;4945575;28;20058;-86
2023/08/27 03:15:43;;;;;;;5.53;3.30;;;17.80;99.90;;;;;;4944171;28;20082;-88
2023/08/27 03:18:10;;;;;;;3.63;3.07;;;17.90;99.90;;;;;;4947774;28;20083;-89
2023/08/27 03:20:36;;;;;;;6.50;3.08;;;17.90;99.90;;;;;;4944941;28;20039;-90
2023/08/27 03:23:01;;;;;;;4.77;3.30;;;17.80;99.90;;;;;;4941845;28;20034;-88
2023/08/27 03:25:27;;;;;;;15.20;4.27;;;17.60;99.90;;;;;;4948805;28;20030;-88
2023/08/27 03:27:52;;;;;;;8.20;4.17;;;17.50;99.90;;;;;;4942644;28;20090;-87
2023/08/27 03:30:18;;;;;;;9.50;3.67;;;17.30;99.90;;;;;;4946451;28;20027;-88
2023/08/27 03:32:44;;;;;;;5.40;3.27;;;17.40;99.90;;;;;;4940668;28;20099;-88
2023/08/27 03:35:11;;;;;;;7.73;3.20;;;17.50;99.90;;;;;;4943281;28;20059;-91
2023/08/27 03:37:37;;;;;;;6.15;2.80;;;17.80;99.90;;;;;;4943544;28;20082;-88
2023/08/27 03:40:02;;;;;;;4.87;3.30;;;18.00;99.90;;;;;;4942955;28;20040;-90
2023/08/27 03:42:28;;;;;;;5.93;3.38;;;17.90;99.90;;;;;;4941587;28;20029;-87
2023/08/27 03:44:54;;;;;;;6.60;3.57;;;18.00;99.90;;;;;;4938116;28;20035;-88
2023/08/27 03:47:19;;;;;;;7.80;3.37;;;18.00;99.90;;;;;;4946388;28;20035;-84
2023/08/27 03:49:45;;;;;;;6.93;3.73;;;18.00;99.90;;;;;;4944879;28;20074;-86
2023/08/27 03:52:10;;;;;;;7.07;3.40;;;18.00;99.90;;;;;;4939936;28;20031;-87
2023/08/27 03:54:36;;;;;;;5.77;3.40;;;18.00;99.90;;;;;;4942574;28;20035;-86
2023/08/27 03:57:02;;;;;;;8.03;4.17;;;18.00;99.90;;;;;;4941817;28;20114;-86
2023/08/27 03:59:27;;;;;;;6.05;3.15;;;18.00;99.90;;;;;;4934951;28;20043;-83
2023/08/27 04:01:54;;;;;;;4.15;3.40;;;18.00;99.90;;;;;;4945102;28;20044;-83
2023/08/27 04:04:20;;;;;;;5.75;3.88;;;18.10;99.90;;;;;;4945003;28;20061;-83
2023/08/27 04:06:46;;;;;;;10.37;4.67;;;18.20;99.90;;;;;;4944014;28;20054;-84
2023/08/27 04:09:12;;;;;;;6.85;4.18;;;18.10;99.90;;;;;;4943954;28;20031;-86
2023/08/27 04:11:38;;;;;;;9.75;4.00;;;18.00;99.90;;;;;;4938632;28;20059;-84
2023/08/27 04:14:04;;;;;;;7.15;3.65;;;17.90;99.90;;;;;;4970091;28;20528;-87
2023/08/27 04:16:30;;;;;;;8.57;4.40;;;18.00;99.90;;;;;;4940720;28;20070;-87
2023/08/27 04:18:56;;;;;;;5.97;4.15;;;18.00;99.90;;;;;;4935446;28;20066;-85
2023/08/27 04:21:21;;;;;;;8.90;7.57;;;17.90;99.90;;;;;;4944853;28;20071;-86
2023/08/27 04:23:47;;;;;;;12.43;9.97;;;17.90;99.90;;;;;;4944427;28;20035;-87
2023/08/27 04:26:12;;;;;;;11.07;7.83;;;17.90;99.90;;;;;;4937538;28;20034;-87
2023/08/27 04:28:38;;;;;;;9.50;8.60;;;18.00;99.90;;;;;;4940087;28;20512;-86
2023/08/27 04:31:04;;;;;;;11.05;7.00;;;17.90;99.90;;;;;;4969112;28;20032;-87
2023/08/27 04:33:30;;;;;;;10.65;7.10;;;17.90;99.90;;;;;;4973357;28;20130;-86
2023/08/27 04:35:56;;;;;;;8.10;5.70;;;18.00;99.90;;;;;;4942344;28;20031;-85
2023/08/27 04:38:21;;;;;;;8.60;6.47;;;18.10;99.90;;;;;;4940548;28;20039;-85
2023/08/27 04:40:51;;;;;;;7.03;5.53;;;18.00;99.90;;;;;;4938143;28;20028;-86
2023/08/27 04:43:17;;;;;;;10.43;6.22;;;17.90;99.90;;;;;;4947179;28;20043;-86
2023/08/27 04:45:43;;;;;;;9.63;5.70;;;17.90;99.90;;;;;;4949019;28;20027;-85
2023/08/27 04:48:08;;;;;;;9.75;6.03;;;17.90;99.90;;;;;;4951699;28;20501;-85
2023/08/27 04:50:35;;;;;;;11.10;5.53;;;17.80;99.90;;;;;;4953006;28;20034;-84
2023/08/27 04:53:00;;;;;;;8.35;4.50;;;17.90;99.90;;;;;;4947247;28;20074;-84
2023/08/27 04:55:26;;;;;;;7.77;4.23;;;17.90;99.90;;;;;;4976024;28;20494;-84
2023/08/27 04:57:52;;;;;;;6.37;4.17;;;17.90;99.90;;;;;;4940958;28;20280;-84
2023/08/27 05:00:21;;;;;;;6.72;3.83;;;17.90;99.90;;;;;;4947662;28;20054;-84
2023/08/27 05:02:48;;;;;;;6.07;3.90;;;17.90;99.90;;;;;;4942685;28;20251;-85
2023/08/27 05:05:14;;;;;;;6.95;4.18;;;17.90;99.90;;;;;;4941139;28;20059;-86
2023/08/27 05:07:40;;;;;;;6.03;4.28;;;17.90;99.90;;;;;;4939240;28;20435;-86
2023/08/27 05:10:07;;;;;;;4.72;4.05;;;17.90;99.90;;;;;;4940198;28;20147;-83
2023/08/27 05:12:32;;;;;;;5.68;4.60;;;17.90;99.90;;;;;;4947690;28;20397;-85
2023/08/27 05:14:58;;;;;;;5.93;5.10;;;17.80;99.90;;;;;;4944066;28;20047;-86
2023/08/27 05:17:23;;;;;;;8.40;5.97;;;17.90;99.90;;;;;;4944672;28;20040;-85
2023/08/27 05:19:49;;;;;;;8.97;6.50;;;17.80;99.90;;;;;;4933139;28;20035;-85
2023/08/27 05:22:15;;;;;;;10.83;7.43;;;17.90;99.90;;;;;;4970072;28;20485;-84
2023/08/27 05:24:40;;;;;;;8.13;6.47;;;17.90;99.90;;;;;;4946859;28;20031;-85
2023/08/27 05:27:06;;;;;;;7.97;6.77;;;17.90;99.90;;;;;;4941697;28;20038;-76
2023/08/27 05:29:33;;;;;;;10.60;7.47;;;17.90;99.90;;;;;;4943157;28;20379;-77
2023/08/27 05:31:59;;;;;;;11.13;7.38;;;17.90;99.90;;;;;;4938722;28;20027;-77
2023/08/27 05:34:24;;;;;;;10.43;6.95;;;17.90;99.90;;;;;;4942292;28;20043;-77
2023/08/27 05:36:50;;;;;;;9.57;7.00;;;17.80;99.90;;;;;;4945113;28;20032;-77
2023/08/27 05:39:16;;;;;;;10.40;7.03;;;17.80;99.90;;;;;;4975233;28;20052;-76
2023/08/27 05:41:41;;;;;;;12.63;6.33;;;17.80;99.90;;;;;;4936346;28;20027;-77
2023/08/27 05:44:07;;;;;;;12.33;5.53;;;17.80;99.90;;;;;;4938782;28;20032;-75
2023/08/27 05:46:32;;;;;;;6.03;4.20;;;17.80;99.90;;;;;;4943374;28;20027;-77
2023/08/27 05:49:00;;;;;;;7.73;3.97;;;17.80;99.90;;;;;;4944284;28;20071;-77
2023/08/27 05:51:25;;;;;;;5.70;3.90;;;17.80;99.90;;;;;;4943689;28;20031;-77
2023/08/27 05:53:51;;;;;;;7.23;3.80;;;17.80;99.90;;;;;;4944925;28;20508;-76
2023/08/27 05:56:17;;;;;;;5.87;3.77;;;17.80;99.90;;;;;;4974774;28;20164;-77
2023/08/27 05:58:43;;;;;;;8.03;3.97;;;17.70;99.90;;;;;;4938475;28;20337;-76
2023/08/27 06:01:08;;;;;;;8.97;3.73;;;17.70;99.90;;;;;;4940414;28;20031;-77
2023/08/27 06:03:34;;;;;;;6.37;4.10;;;17.80;99.90;;;;;;4943849;28;20290;-77
2023/08/27 06:06:00;;;;;;;10.80;4.72;;;17.80;99.90;;;;;;4946294;28;20058;-77
2023/08/27 06:08:26;;;;;;;7.60;4.40;;;17.80;99.90;;;;;;4943448;28;20078;-77
2023/08/27 06:10:52;;;;;;;9.67;3.57;;;17.80;99.90;;;;;;4946059;28;20028;-77
2023/08/27 06:13:18;;;;;;;9.37;4.13;;;17.80;99.90;;;;;;4943827;28;20379;-77
2023/08/27 06:15:44;;;;;;;6.82;3.97;;;17.80;99.90;;;;;;4942000;28;20038;-77
2023/08/27 06:18:10;;;;;;;12.05;4.07;;;17.90;99.90;;;;;;4940914;28;20040;-78
2023/08/27 06:20:36;;;;;;;7.67;4.17;;;17.80;99.90;;;;;;4943181;28;20520;-78
2023/08/27 06:23:06;;;;;;;10.38;4.15;;;17.80;99.90;;;;;;4941595;28;20039;-77
2023/08/27 06:25:33;;;;;;;8.15;3.50;;;17.90;99.90;;;;;;4971823;28;20038;-77
2023/08/27 06:27:59;;;;;;;8.32;4.20;;;17.90;99.90;;;;;;4947281;28;20023;-77
2023/08/27 06:30:25;;;;;;;5.45;3.83;;;17.80;99.90;;;;;;4943068;28;20744;-77
2023/08/27 06:32:51;;;;;;;6.50;3.85;;;17.70;99.90;;;;;;4944807;28;20050;-78
2023/08/27 06:35:16;;;;;;;7.13;4.07;;;17.60;99.90;;;;;;4945500;28;20401;-77
2023/08/27 06:37:42;;;;;;;5.10;3.53;;;17.60;99.90;;;;;;4945015;28;20031;-77
2023/08/27 06:40:09;;;;;;;5.37;2.93;;;17.70;99.90;;;;;;4944024;28;20047;-77
2023/08/27 06:42:35;;;;;;;8.15;3.25;;;17.70;99.90;;;;;;4944948;28;20303;-77
2023/08/27 06:45:04;;;;;;;15.67;4.43;;;17.70;99.90;;;;;;4944045;28;20601;-77
2023/08/27 06:47:30;;;;;;;4.70;3.00;;;17.70;99.90;;;;;;4943872;28;20548;-76
2023/08/27 06:49:56;;;;;;;4.97;2.83;;;17.70;99.90;;;;;;4945559;28;20027;-76
2023/08/27 06:52:22;;;;;;;6.07;3.15;;;17.80;99.90;;;;;;4940659;28;20050;-79
2023/08/27 06:54:48;;;;;;;10.77;3.20;;;17.80;99.90;;;;;;4945787;28;20039;-79
2023/08/27 06:57:13;;;;;;;4.35;3.13;;;17.70;99.90;;;;;;4938524;28;20036;-80
2023/08/27 06:59:39;;;;;;;5.07;3.30;;;17.80;99.90;;;;;;4945096;28;20047;-81
2023/08/27 07:02:05;;;;;;;6.10;2.93;;;17.80;99.90;;;;;;4942614;28;20038;-79
2023/08/27 07:04:32;;;;;;;8.63;3.37;;;17.80;99.90;;;;;;4945744;28;20032;-80
2023/08/27 07:06:58;;;;;;;5.57;3.70;;;17.90;99.90;;;;;;4937270;28;20040;-80
2023/08/27 07:09:25;;;;;;;6.70;4.25;;;17.90;99.90;;;;;;4974003;28;20078;-81
2023/08/27 07:11:51;;;;;;;6.40;4.65;;;17.90;99.90;;;;;;4941596;28;20040;-74
2023/08/27 07:14:16;;;;;;;6.15;3.78;;;17.90;99.90;;;;;;4942820;28;20027;-76
2023/08/27 07:16:42;;;;;;;7.23;4.83;;;17.90;99.90;;;;;;4939429;28;20121;-76
2023/08/27 07:19:08;;;;;;;9.03;4.00;;;17.90;99.90;;;;;;4940164;28;20097;-76
2023/08/27 07:21:33;;;;;;;6.93;4.43;;;17.90;99.90;;;;;;4943511;28;20036;-75
2023/08/27 07:23:59;;;;;;;8.63;4.50;;;17.90;99.90;;;;;;4940683;28;20055;-77
2023/08/27 07:26:25;;;;;;;11.20;4.47;;;17.90;99.90;;;;;;4943464;28;20031;-79
2023/08/27 07:28:51;;;;;;;7.85;4.45;;;18.00;99.90;;;;;;4940928;28;20027;-79
2023/08/27 07:31:16;;;;;;;6.28;4.75;;;18.00;99.90;;;;;;4945572;28;20038;-79
2023/08/27 07:33:42;;;;;;;10.27;4.07;;;18.10;99.90;;;;;;4938667;28;20032;-79
2023/08/27 07:36:08;;;;;;;5.95;4.30;;;18.10;99.90;;;;;;4939406;28;20035;-87
2023/08/27 07:38:41;;;;;;;5.28;4.25;;;18.10;99.90;;;;;;4945564;28;20094;-78
2023/08/27 07:41:08;;;;;;;9.63;4.07;;;18.10;99.90;;;;;;4945079;28;20062;-78
2023/08/27 07:43:34;;;;;;;5.38;4.13;;;18.00;99.90;;;;;;4948406;28;20033;-76
2023/08/27 07:46:00;;;;;;;6.83;3.80;;;18.10;99.90;;;;;;4944715;28;20032;-74
2023/08/27 07:48:27;;;;;;;6.78;3.78;;;18.10;99.90;;;;;;4950335;28;20299;-76
2023/08/27 07:50:52;;;;;;;5.43;3.47;;;18.20;99.90;;;;;;4937268;28;20031;-78
2023/08/27 07:53:18;;;;;;;5.37;3.13;;;18.20;99.90;;;;;;4943001;28;20050;-76
2023/08/27 07:55:44;;;;;;;8.87;3.60;;;18.30;99.90;;;;;;4974165;28;20043;-72
2023/08/27 07:58:09;;;;;;;8.70;3.40;;;18.30;99.90;;;;;;4940745;28;20045;-73
2023/08/27 08:00:35;;;;;;;4.90;3.80;;;18.40;99.90;;;;;;4943394;28;20046;-72
2023/08/27 08:03:02;;;;;;;8.20;4.80;;;18.40;99.90;;;;;;4941811;28;20035;-71
2023/08/27 08:05:28;;;;;;;8.02;4.55;;;18.50;99.90;;;;;;4943848;28;20027;-78
2023/08/27 08:07:54;;;;;;;12.52;5.40;;;18.50;99.90;;;;;;4947657;28;20600;-75
2023/08/27 08:10:21;;;;;;;5.60;3.65;;;18.60;99.90;;;;;;4943462;28;20043;-72
2023/08/27 08:12:47;;;;;;;9.90;4.35;;;18.50;99.90;;;;;;4944124;28;20031;-70
2023/08/27 08:15:14;;;;;;;7.55;4.43;;;18.40;99.90;;;;;;4942316;28;20043;-71
2023/08/27 08:17:39;;;;;;;5.40;2.28;;;18.50;99.90;;;;;;4944169;28;20035;-70
2023/08/27 08:20:06;;;;;;;5.47;2.73;;;18.70;99.90;;;;;;4942360;28;20043;-70
2023/08/27 08:22:32;;;;;;;6.60;4.22;;;18.70;99.90;;;;;;4939395;28;20020;-72
2023/08/27 08:24:57;;;;;;;6.80;4.15;;;18.80;99.90;;;;;;4944710;28;20494;-70
2023/08/27 08:27:24;;;;;;;9.47;4.43;;;18.60;99.90;;;;;;4976164;28;20068;-71
2023/08/27 08:29:50;;;;;;;13.32;3.75;;;18.70;99.90;;;;;;4938698;28;20035;-71
2023/08/27 08:32:15;;;;;;;6.35;3.20;;;18.60;99.90;;;;;;4938320;28;20043;-71
2023/08/27 08:34:41;;;;;;;5.57;3.20;;;18.60;99.90;;;;;;4938887;28;20043;-70
2023/08/27 08:37:08;;;;;;;7.15;3.22;;;18.60;99.90;;;;;;4937820;28;20753;-70
2023/08/27 08:39:34;;;;;;;10.55;3.90;;;18.50;99.90;;;;;;4943632;28;20035;-70
2023/08/27 08:42:06;;;;;;;5.32;3.55;;;18.30;99.90;;;;;;4942970;28;20035;-70
2023/08/27 08:45:09;;;;;;;7.63;3.50;;;18.30;99.90;;;;;;4943560;28;20046;-71
2023/08/27 08:47:38;;;;;;;5.93;3.72;;;18.40;99.90;;;;;;4939014;28;20544;-71
2023/08/27 08:50:08;;;;;;;6.78;3.80;;;18.50;99.90;;;;;;4937378;28;20055;-71
2023/08/27 08:52:38;;;;;;;5.88;3.60;;;18.40;99.90;;;;;;4941222;28;20030;-70
2023/08/27 08:55:08;;;;;;;5.72;3.67;;;18.50;99.90;;;;;;4939153;28;20035;-71
2023/08/27 08:57:38;;;;;;;5.30;3.63;;;18.40;99.90;;;;;;4943806;28;20071;-70
2023/08/27 09:00:07;;;;;;;10.65;4.50;;;18.40;99.90;;;;;;4938928;28;20039;-71
2023/08/27 09:02:34;;;;;;;10.18;4.45;;;18.60;99.90;;;;;;4941166;28;20606;-70
2023/08/27 09:05:01;;;;;;;5.75;4.30;;;18.80;99.90;;;;;;4946652;28;20023;-70
2023/08/27 09:07:28;;;;;;;9.50;4.40;;;18.90;99.90;;;;;;4944816;28;20098;-70
2023/08/27 09:09:55;;;;;;;7.18;5.00;;;18.90;99.90;;;;;;4942017;28;20139;-70
2023/08/27 09:12:22;;;;;;;5.63;3.97;;;18.90;99.90;;;;;;4941554;28;20027;-71
2023/08/27 09:14:48;;;;;;;5.85;3.88;;;18.90;99.90;;;;;;4942467;28;20030;-71
2023/08/27 09:17:16;;;;;;;5.03;3.85;;;19.10;99.90;;;;;;4937357;28;20130;-72
2023/08/27 09:19:43;;;;;;;5.20;3.05;;;18.90;99.90;;;;;;4941812;28;20536;-73
2023/08/27 09:22:10;;;;;;;6.78;2.95;;;18.70;99.90;;;;;;4943993;28;20223;-74
2023/08/27 09:24:36;;;;;;;;;;;18.80;99.90;;;;;;4943322;28;20042;-73
2023/08/27 09:27:02;;;;;;;4.93;3.15;;;18.80;99.90;;;;;;4939273;28;19911;-73
2023/08/27 09:29:29;;;;;;;7.60;2.78;;;18.90;99.90;;;;;;4944291;28;20396;-73
2023/08/27 09:31:56;;;;;;;4.70;3.25;;;18.90;99.90;;;;;;4940891;28;20513;-72
2023/08/27 09:34:22;;;;;;;5.53;3.33;;;19.00;99.90;;;;;;4938767;28;20034;-73
2023/08/27 09:36:47;;;;;;;5.23;3.43;;;19.10;99.90;;;;;;4950997;28;20039;-73
2023/08/27 09:39:13;;;;;;;8.33;3.93;;;19.00;99.90;;;;;;4942076;28;20046;-74
2023/08/27 09:41:44;;;;;;;7.22;3.88;;;19.00;99.90;;;;;;4939287;28;20086;-74
2023/08/27 09:44:10;;;;;;;7.13;3.95;;;19.10;99.90;;;;;;4960058;28;20134;-73
2023/08/27 09:46:36;;;;;;;;;;;19.00;99.90;;;;;;4948719;28;20042;-73
2023/08/27 09:49:07;;;;;;;6.15;3.65;;;19.00;99.90;;;;;;4942683;28;20460;-72
2023/08/27 09:51:35;;;;;;;9.70;4.47;;;19.00;99.90;;;;;;4943698;28;20400;-71
2023/08/27 09:54:01;;;;;;;4.43;3.28;;;19.10;99.90;;;;;;4942366;28;20122;-70
2023/08/27 09:56:27;;;;;;;7.55;3.35;;;19.10;99.90;;;;;;4941749;28;20118;-72
2023/08/27 09:58:54;;;;;;;6.53;2.83;;;19.10;99.90;;;;;;4941174;28;20455;-72
2023/08/27 10:01:23;;;;;;;6.93;3.70;;;19.30;99.90;;;;;;4946257;28;20039;-72
2023/08/27 10:03:49;;;;;;;5.10;3.03;;;19.30;99.90;;;;;;4944549;28;20429;-72
2023/08/27 10:06:14;;;;;;;7.80;2.50;;;19.20;99.90;;;;;;4944387;28;20043;-71
2023/08/27 10:08:50;;;;;;;7.70;2.60;;;19.10;99.90;;;;;;4945029;28;20039;-73
2023/08/27 10:11:17;;;;;;;4.63;3.30;;;19.00;99.90;;;;;;4943541;28;20920;-73
2023/08/27 10:13:44;;;;;;;5.50;2.92;;;19.00;99.90;;;;;;4946845;28;20505;-71
2023/08/27 10:16:13;;;;;;;7.22;3.10;;;19.00;99.90;;;;;;4952985;28;20034;-76
2023/08/27 10:18:41;;;;;;;5.60;3.10;;;19.00;99.90;;;;;;4947060;28;20027;-72
2023/08/27 10:21:08;;;;;;;5.95;2.72;;;19.00;99.90;;;;;;4938843;28;20145;-73
2023/08/27 10:23:38;;;;;;;4.53;3.00;;;19.00;99.90;;;;;;4946845;28;20056;-71
2023/08/27 10:26:05;;;;;;;8.25;3.70;;;19.00;99.90;;;;;;4943099;28;20040;-72
2023/08/27 10:28:32;;;;;;;;;;;19.20;99.90;;;;;;4981440;28;20117;-72
2023/08/27 10:30:58;;;;;;;3.60;2.35;;;19.20;99.90;;;;;;4947957;28;20377;-72
2023/08/27 10:33:24;;;;;;;4.97;2.27;;;19.40;99.90;;;;;;4945117;28;20035;-73
2023/08/27 10:35:52;;;;;;;3.63;2.07;;;19.60;99.90;;;;;;4943241;28;20079;-73
2023/08/27 10:38:20;;;;;;;6.03;2.22;;;19.80;99.90;;;;;;4942415;28;20028;-73
2023/08/27 10:40:46;;;;;;;8.35;1.95;;;19.70;99.90;;;;;;4940690;28;20147;-72
2023/08/27 10:43:20;;;;;;;2.80;2.03;;;19.80;99.90;;;;;;4939502;28;20114;-74
2023/08/27 10:45:50;;;;;;;7.75;1.77;;;19.80;99.90;;;;;;4949754;28;20043;-73
2023/08/27 10:48:22;;;;;;;4.63;1.90;;;19.80;99.90;;;;;;5000027;28;20038;-72
2023/08/27 10:50:55;;;;;;;4.28;1.75;;;19.50;99.90;;;;;;4947599;28;20043;-72
2023/08/27 10:53:21;;;;;;;3.65;1.70;;;19.40;99.90;;;;;;4949473;28;20032;-72
2023/08/27 10:55:52;;;;;;;1.70;1.55;;;19.20;99.90;;;;;;4941767;28;20038;-73
2023/08/27 10:58:22;;;;;;;2.75;2.08;;;19.20;99.90;;;;;;4939400;28;20504;-73
2023/08/27 11:01:13;;;;;;;6.20;3.42;;;19.10;99.90;;;;;;4944131;28;20143;-73
2023/08/27 11:03:53;;;;;;;4.13;2.40;;;19.20;99.90;;;;;;4974451;28;20031;-73
2023/08/27 11:06:20;;;;;;;4.82;2.65;;;19.30;99.90;;;;;;4945292;28;20140;-72
2023/08/27 11:08:52;;;;;;;12.13;2.70;;;19.40;99.90;;;;;;4941015;28;20031;-74
2023/08/27 11:11:25;;;;;;;4.18;1.88;;;19.30;99.90;;;;;;4946482;28;20075;-74
2023/08/27 11:14:08;;;;;;;10.23;3.10;;;19.30;99.90;;;;;;4944691;28;20432;-74
2023/08/27 11:16:47;;;;;;;3.72;1.73;;;19.20;99.90;;;;;;4945935;28;20114;-73
2023/08/27 11:19:14;;;;;;;2.53;1.35;;;19.20;99.90;;;;;;4944269;28;20074;-73
2023/08/27 11:21:42;;;;;;;3.05;2.30;;;19.20;99.90;;;;;;4941999;28;20023;-74
2023/08/27 11:24:15;;;;;;;7.88;2.20;;;19.40;99.90;;;;;;4939983;28;20043;-74
2023/08/27 11:26:42;;;;;;;4.15;1.98;;;19.30;99.90;;;;;;4945918;28;20110;-73
2023/08/27 11:29:09;;;;;;;2.45;1.65;;;19.50;99.90;;;;;;4934969;28;20058;-73
2023/08/27 11:31:42;;;;;;;5.82;2.22;;;19.70;99.90;;;;;;4943637;28;20041;-73
2023/08/27 11:34:14;;;;;;;6.00;1.92;;;19.90;99.90;;;;;;4944428;28;20027;-73
2023/08/27 11:36:46;;;;;;;2.90;1.73;;;20.20;99.90;;;;;;4937413;28;20098;-73
2023/08/27 11:39:12;;;;;;;5.75;2.38;;;20.40;99.90;;;;;;4948091;28;20054;-73
2023/08/27 11:41:40;;;;;;;7.00;2.28;;;20.40;99.90;;;;;;4945170;28;20043;-74
2023/08/27 11:44:10;;;;;;;6.50;1.65;;;20.50;99.90;;;;;;4942021;28;20512;-73
2023/08/27 11:46:37;;;;;;;5.40;1.98;;;20.50;99.90;;;;;;4942378;28;20576;-74
2023/08/27 11:49:04;;;;;;;5.05;1.92;;;20.60;99.90;;;;;;4939411;28;20119;-74
2023/08/27 11:51:30;;;;;;;8.23;1.85;;;20.70;99.90;;;;;;4975828;28;20393;-74
2023/08/27 11:53:56;;;;;;;2.53;1.90;;;20.80;99.90;;;;;;4947344;28;20027;-73
2023/08/27 11:56:23;;;;;;;2.65;1.30;;;20.80;99.90;;;;;;4945208;28;20039;-74
2023/08/27 11:58:51;;;;;;;2.47;1.35;;;20.70;99.90;;;;;;4937238;28;20106;-74
2023/08/27 12:01:21;;;;;;;6.50;1.42;;;20.90;99.90;;;;;;4950283;28;20030;-74
2023/08/27 12:03:48;;;;;;;1.55;1.20;;;21.00;99.90;;;;;;4941544;28;20058;-74
2023/08/27 12:06:17;;;;;;;5.28;1.30;;;20.90;99.90;;;;;;4949141;28;20028;-73
2023/08/27 12:08:48;;;;;;;2.65;1.00;;;20.80;99.90;;;;;;4941923;28;20474;-74
2023/08/27 12:11:15;;;;;;;3.40;1.35;;;20.80;99.90;;;;;;4936104;28;20041;-72
2023/08/27 12:13:46;;;;;;;1.17;0.98;;;20.90;99.90;;;;;;4937411;28;20383;-74
2023/08/27 12:16:14;;;;;;;2.03;1.00;;;20.90;99.90;;;;;;4943902;28;20035;-73
2023/08/27 12:18:43;;;;;;;3.65;1.38;;;20.90;99.70;;;;;;4943770;28;20023;-72
2023/08/27 12:21:09;;;;;;;2.83;1.10;;;21.00;99.90;;;;;;4970128;28;20035;-72
2023/08/27 12:23:35;;;;;;;1.98;1.10;;;21.10;99.50;;;;;;4939209;28;20039;-72
2023/08/27 12:26:02;;;;;;;3.53;1.30;;;21.10;99.70;;;;;;4945363;28;20023;-73
2023/08/27 12:28:29;;;;;;;3.30;1.30;;;21.30;99.90;;;;;;4942048;28;20085;-73
2023/08/27 12:30:59;;;;;;;4.38;1.17;;;21.40;99.90;;;;;;4950755;28;20457;-73
2023/08/27 12:33:41;;;;;;;4.57;1.25;;;21.50;98.90;;;;;;4939293;28;20082;-72
2023/08/27 12:36:07;;;;;;;3.88;0.80;;;21.40;96.20;;;;;;4945897;28;20113;-73
2023/08/27 12:38:34;;;;;;;3.72;1.08;;;21.40;96.90;;;;;;4938782;28;20493;-72
2023/08/27 12:41:00;;;;;;;3.97;1.00;;;21.40;96.10;;;;;;4942770;28;20624;-73
2023/08/27 12:43:26;;;;;;;4.75;1.15;;;21.30;96.30;;;;;;4944592;28;20118;-73
2023/08/27 12:45:52;;;;;;;3.15;1.15;;;21.40;96.70;;;;;;4942545;28;20042;-73